createdAt,value
2022-11-03T00:01:39.953Z,98450.94
2022-11-03T00:04:10.780Z,98451.41
2022-11-03T00:06:40.385Z,98448.94
2022-11-03T00:09:12.394Z,98452.53
2022-11-03T00:11:45.436Z,98453.13
2022-11-03T00:14:15.202Z,98453.50
2022-11-03T00:16:44.523Z,98454.31
2022-11-03T00:19:16.323Z,98453.19
2022-11-03T00:21:45.585Z,98452.53
2022-11-03T00:24:14.816Z,98449.94
2022-11-03T00:26:44.787Z,98443.59
2022-11-03T00:29:16.421Z,98439.53
2022-11-03T00:31:46.641Z,98432.19
2022-11-03T00:34:15.673Z,98431.34
2022-11-03T00:36:45.993Z,98420.94
2022-11-03T00:39:14.667Z,98423.41
2022-11-03T00:41:44.930Z,98419.31
2022-11-03T00:44:13.539Z,98416.66
2022-11-03T00:46:42.060Z,98408.69
2022-11-03T00:49:10.648Z,98408.06
2022-11-03T00:51:39.226Z,98403.81
2022-11-03T00:54:09.407Z,98409.31
2022-11-03T00:56:41.274Z,98398.75
2022-11-03T00:59:11.980Z,98394.81
2022-11-03T01:01:46.805Z,98402.47
2022-11-03T01:04:35.343Z,98397.75
2022-11-03T01:07:05.896Z,98394.19
2022-11-03T01:09:39.137Z,98393.53
2022-11-03T01:12:11.694Z,98397.75
2022-11-03T01:14:45.615Z,98398.41
2022-11-03T01:17:16.973Z,98390.25
2022-11-03T01:19:47.096Z,98397.41
2022-11-03T01:22:18.318Z,98392.22
2022-11-03T01:24:48.022Z,98388.63
2022-11-03T01:27:21.177Z,98396.13
2022-11-03T01:29:51.111Z,98377.25
2022-11-03T01:32:19.717Z,98381.97
2022-11-03T01:34:48.206Z,98372.00
2022-11-03T01:37:16.713Z,98371.84
2022-11-03T01:39:45.289Z,98364.53
2022-11-03T01:42:15.328Z,98366.81
2022-11-03T01:44:48.958Z,98357.06
2022-11-03T01:47:31.067Z,98346.66
2022-11-03T01:50:06.584Z,98352.63
2022-11-03T01:52:42.120Z,98348.25
2022-11-03T01:55:17.628Z,98340.75
2022-11-03T01:57:53.881Z,98336.53
2022-11-03T02:00:23.359Z,98330.84
2022-11-03T02:02:53.842Z,98338.31
2022-11-03T02:05:26.443Z,98324.84
2022-11-03T02:08:01.872Z,98329.06
2022-11-03T02:10:30.651Z,98335.06
2022-11-03T02:12:59.995Z,98320.94
2022-11-03T02:15:30.578Z,98318.66
2022-11-03T02:18:02.873Z,98310.84
2022-11-03T02:20:34.561Z,98306.34
2022-11-03T02:23:34.024Z,98297.53
2022-11-03T02:26:04.631Z,98297.53
2022-11-03T02:28:34.772Z,98302.75
2022-11-03T02:31:16.100Z,98289.09
2022-11-03T02:33:55.080Z,98302.56
2022-11-03T02:36:30.548Z,98304.00
2022-11-03T02:39:07.148Z,98295.25
2022-11-03T02:41:40.900Z,98292.47
2022-11-03T02:44:17.520Z,98285.34
2022-11-03T02:46:51.733Z,98276.56
2022-11-03T02:49:20.162Z,98277.06
2022-11-03T02:51:48.718Z,98275.75
2022-11-03T02:54:24.745Z,98271.19
2022-11-03T02:57:01.647Z,98261.47
2022-11-03T02:59:39.038Z,98257.22
2022-11-03T03:02:15.196Z,98255.59
2022-11-03T03:04:51.198Z,98240.31
2022-11-03T03:07:27.789Z,98238.69
2022-11-03T03:10:03.702Z,98242.28
2022-11-03T03:12:39.128Z,98242.88
2022-11-03T03:15:10.445Z,98239.00
2022-11-03T03:17:50.586Z,98235.59
2022-11-03T03:20:26.685Z,98235.41
2022-11-03T03:23:04.158Z,98237.06
2022-11-03T03:25:42.136Z,98238.50
2022-11-03T03:28:16.943Z,98227.28
2022-11-03T03:30:50.069Z,98222.41
2022-11-03T03:33:20.232Z,98227.13
2022-11-03T03:35:52.570Z,98221.59
2022-11-03T03:38:27.715Z,98225.69
2022-11-03T03:41:05.511Z,98212.34
2022-11-03T03:43:38.472Z,98218.19
2022-11-03T03:46:12.773Z,98204.22
2022-11-03T03:48:41.859Z,98206.34
2022-11-03T03:51:12.547Z,98201.97
2022-11-03T03:53:41.156Z,98201.97
2022-11-03T03:56:10.335Z,98207.16
2022-11-03T03:58:41.051Z,98198.41
2022-11-03T04:01:13.425Z,98195.63
2022-11-03T04:03:42.057Z,98195.13
2022-11-03T04:06:11.124Z,98194.34
2022-11-03T04:08:39.824Z,98194.34
2022-11-03T04:11:26.202Z,98190.75
2022-11-03T04:14:13.356Z,98189.59
2022-11-03T04:16:59.699Z,98187.34
2022-11-03T04:19:45.885Z,98182.13
2022-11-03T04:22:17.456Z,98180.81
2022-11-03T04:24:47.932Z,98174.66
2022-11-03T04:27:33.659Z,98183.91
2022-11-03T04:30:17.574Z,98182.44
2022-11-03T04:32:48.761Z,98170.44
2022-11-03T04:35:20.946Z,98167.19
2022-11-03T04:37:56.268Z,98162.59
2022-11-03T04:40:25.304Z,98157.09
2022-11-03T04:42:54.158Z,98149.97
2022-11-03T04:45:30.806Z,98148.34
2022-11-03T04:48:02.890Z,98141.38
2022-11-03T04:50:32.282Z,98138.63
2022-11-03T04:53:01.560Z,98136.03
2022-11-03T04:55:30.124Z,98124.97
2022-11-03T04:58:03.942Z,98117.84
2022-11-03T05:00:33.755Z,98119.63
2022-11-03T05:03:02.322Z,98128.38
2022-11-03T05:05:31.325Z,98124.00
2022-11-03T05:08:00.552Z,98119.75
2022-11-03T05:10:30.689Z,98115.53
2022-11-03T05:13:02.690Z,98107.75
2022-11-03T05:15:37.868Z,98107.91
2022-11-03T05:18:22.780Z,98105.16
2022-11-03T05:20:57.722Z,98100.94
2022-11-03T05:23:30.870Z,98105.16
2022-11-03T05:26:00.575Z,98095.56
2022-11-03T05:28:34.929Z,98094.13
2022-11-03T05:31:21.933Z,98104.97
2022-11-03T05:33:51.678Z,98091.81
2022-11-03T05:36:24.363Z,98084.66
2022-11-03T05:38:57.269Z,98082.06
2022-11-03T05:41:30.185Z,98071.34
2022-11-03T05:44:02.054Z,98072.16
2022-11-03T05:46:37.037Z,98069.72
2022-11-03T05:49:08.725Z,98069.91
2022-11-03T05:51:42.777Z,98071.66
2022-11-03T05:54:22.068Z,98072.63
2022-11-03T05:56:51.832Z,98076.50
2022-11-03T05:59:29.749Z,98071.00
2022-11-03T06:02:02.309Z,98059.66
2022-11-03T06:04:38.094Z,98059.97
2022-11-03T06:07:22.423Z,98060.94
2022-11-03T06:09:51.117Z,98060.78
2022-11-03T06:12:23.450Z,98054.63
2022-11-03T06:14:53.511Z,98056.56
2022-11-03T06:17:28.564Z,98046.03
2022-11-03T06:20:01.354Z,98038.72
2022-11-03T06:22:37.212Z,98043.78
2022-11-03T06:25:31.281Z,98043.28
2022-11-03T06:28:06.086Z,98039.19
2022-11-03T06:30:40.308Z,98033.72
2022-11-03T06:33:17.342Z,98015.53
2022-11-03T06:35:46.916Z,98017.44
2022-11-03T06:38:21.812Z,98019.88
2022-11-03T06:40:53.076Z,98014.56
2022-11-03T06:43:28.880Z,98022.84
2022-11-03T06:46:00.374Z,98014.56
2022-11-03T06:48:31.718Z,98010.84
2022-11-03T06:51:02.004Z,98008.56
2022-11-03T06:53:35.232Z,98011.66
2022-11-03T06:56:03.861Z,98005.50
2022-11-03T06:58:36.760Z,98009.41
2022-11-03T07:01:17.825Z,98000.47
2022-11-03T07:03:48.125Z,97992.81
2022-11-03T07:06:24.729Z,97984.06
2022-11-03T07:08:56.777Z,97991.22
2022-11-03T07:11:28.458Z,97984.88
2022-11-03T07:14:00.634Z,97979.69
2022-11-03T07:16:36.422Z,97972.88
2022-11-03T07:19:16.016Z,97966.53
2022-11-03T07:21:49.986Z,97963.28
2022-11-03T07:24:25.202Z,97960.06
2022-11-03T07:27:01.328Z,97963.94
2022-11-03T07:29:32.534Z,97952.28
2022-11-03T07:32:01.593Z,97951.28
2022-11-03T07:34:36.366Z,97949.34
2022-11-03T07:37:08.495Z,97946.41
2022-11-03T07:39:39.669Z,97947.72
2022-11-03T07:42:19.068Z,97957.59
2022-11-03T07:44:48.541Z,97950.28
2022-11-03T07:47:23.236Z,97955.19
2022-11-03T07:49:53.356Z,97952.91
2022-11-03T07:52:26.154Z,97945.44
2022-11-03T07:54:58.136Z,97956.31
2022-11-03T07:57:30.718Z,97947.03
2022-11-03T08:00:09.026Z,97946.88
2022-11-03T08:02:49.821Z,97934.19
2022-11-03T08:07:48.504Z,97932.56
2022-11-03T08:10:17.332Z,97932.06
2022-11-03T08:12:45.996Z,97932.34
2022-11-03T08:15:16.002Z,97938.69
2022-11-03T08:17:45.013Z,97942.59
2022-11-03T08:20:14.355Z,97939.47
2022-11-03T08:22:59.111Z,97940.91
2022-11-03T08:25:33.786Z,97940.41
2022-11-03T08:28:03.189Z,97934.88
2022-11-03T08:30:32.055Z,97937.13
2022-11-03T08:33:00.888Z,97927.06
2022-11-03T08:35:31.591Z,97914.69
2022-11-03T08:38:04.333Z,97909.78
2022-11-03T08:40:33.727Z,97905.69
2022-11-03T08:43:03.190Z,97894.31
2022-11-03T08:45:32.229Z,97891.22
2022-11-03T08:48:00.988Z,97875.25
2022-11-03T08:50:30.436Z,97876.53
2022-11-03T08:52:59.111Z,97870.16
2022-11-03T08:55:29.124Z,97869.00
2022-11-03T08:57:57.799Z,97869.47
2022-11-03T09:00:26.492Z,97867.06
2022-11-03T09:02:55.184Z,97860.38
2022-11-03T09:05:23.966Z,97844.25
2022-11-03T09:10:45.002Z,97837.34
2022-11-03T09:13:13.574Z,97837.59
2022-11-03T09:15:42.275Z,97828.31
2022-11-03T09:18:11.483Z,97823.19
2022-11-03T09:20:40.326Z,97815.66
2022-11-03T09:23:09.586Z,97801.97
2022-11-03T09:25:38.953Z,97792.78
2022-11-03T09:28:09.914Z,97784.28
2022-11-03T09:30:38.687Z,97784.72
2022-11-03T09:33:07.769Z,97783.38
2022-11-03T09:35:36.578Z,97779.28
2022-11-03T09:38:06.155Z,97774.34
2022-11-03T09:40:37.130Z,97758.97
2022-11-03T09:43:06.134Z,97761.88
2022-11-03T09:45:37.158Z,97752.69
2022-11-03T09:48:06.726Z,97750.34
2022-11-03T09:50:35.550Z,97746.03
2022-11-03T09:53:04.312Z,97744.03
2022-11-03T09:55:34.987Z,97753.31
2022-11-03T09:58:12.315Z,97747.72
2022-11-03T10:00:42.907Z,97737.75
2022-11-03T10:03:13.990Z,97742.59
2022-11-03T10:05:46.337Z,97733.59
2022-11-03T10:08:26.455Z,97723.00
2022-11-03T10:10:56.673Z,97725.22
2022-11-03T10:13:31.923Z,97718.66
2022-11-03T10:16:05.512Z,97716.66
2022-11-03T10:18:35.825Z,97713.69
2022-11-03T10:21:08.472Z,97697.69
2022-11-03T10:23:37.388Z,97699.91
2022-11-03T10:26:12.849Z,97687.50
2022-11-03T10:28:58.212Z,97668.88
2022-11-03T10:31:36.044Z,97658.88
2022-11-03T10:34:05.951Z,97659.50
2022-11-03T10:36:35.737Z,97653.91
2022-11-03T10:39:30.676Z,97659.53
2022-11-03T10:42:03.922Z,97651.56
2022-11-03T10:44:33.032Z,97649.38
2022-11-03T10:47:05.514Z,97653.22
2022-11-03T10:49:40.889Z,97640.78
2022-11-03T10:52:22.626Z,97633.38
2022-11-03T10:54:54.042Z,97640.03
2022-11-03T10:57:23.934Z,97646.47
2022-11-03T10:59:55.611Z,97641.91
2022-11-03T11:02:31.391Z,97633.69
2022-11-03T11:05:03.148Z,97631.09
2022-11-03T11:07:36.863Z,97620.44
2022-11-03T11:10:13.131Z,97616.84
2022-11-03T11:13:01.102Z,97620.88
2022-11-03T11:15:43.120Z,97597.19
2022-11-03T11:18:47.864Z,97597.63
2022-11-03T11:22:07.491Z,97604.47
2022-11-03T11:25:02.610Z,97604.91
2022-11-03T11:27:59.623Z,97599.47
2022-11-03T11:31:03.983Z,97587.66
2022-11-03T11:33:35.477Z,97587.25
2022-11-03T11:36:24.478Z,97586.69
2022-11-03T11:38:58.575Z,97587.94
2022-11-03T11:42:12.309Z,97568.44
2022-11-03T11:45:07.209Z,97551.59
2022-11-03T11:47:56.400Z,97532.75
2022-11-03T11:50:31.777Z,97528.75
2022-11-03T11:53:12.434Z,97535.19
2022-11-03T11:55:46.916Z,97513.91
2022-11-03T11:58:24.912Z,97522.75
2022-11-03T12:01:02.539Z,97513.53
2022-11-03T12:03:39.039Z,97509.53
2022-11-03T12:06:10.554Z,97513.16
2022-11-03T12:08:39.551Z,97508.78
2022-11-03T12:11:12.018Z,97507.19
2022-11-03T12:13:51.443Z,97504.78
2022-11-03T12:16:36.990Z,97494.56
2022-11-03T12:19:39.310Z,97460.56
2022-11-03T12:22:11.786Z,97453.94
2022-11-03T12:24:50.684Z,97449.91
2022-11-03T12:27:43.533Z,97450.13
2022-11-03T12:30:19.761Z,97434.03
2022-11-03T12:32:49.302Z,97438.84
2022-11-03T12:35:18.331Z,97435.81
2022-11-03T12:37:48.667Z,97419.72
2022-11-03T12:40:17.237Z,97406.28
2022-11-03T12:42:45.837Z,97391.19
2022-11-03T12:45:14.774Z,97385.53
2022-11-03T12:47:43.290Z,97381.69
2022-11-03T12:50:12.086Z,97373.66
2022-11-03T12:52:40.573Z,97381.09
2022-11-03T12:55:11.531Z,97378.47
2022-11-03T12:57:40.499Z,97374.06
2022-11-03T13:00:10.985Z,97369.22
2022-11-03T13:02:39.990Z,97363.56
2022-11-03T13:05:09.981Z,97343.84
2022-11-03T13:07:38.468Z,97338.22
2022-11-03T13:10:11.547Z,97327.31
2022-11-03T13:12:41.641Z,97318.25
2022-11-03T13:15:13.616Z,97315.25
2022-11-03T13:20:30.976Z,97297.72
2022-11-03T13:22:59.459Z,97289.22
2022-11-03T13:25:29.799Z,97278.94
2022-11-03T13:27:58.698Z,97275.47
2022-11-03T13:30:28.708Z,97273.03
2022-11-03T13:32:57.773Z,97271.56
2022-11-03T13:35:26.837Z,97262.28
2022-11-03T13:37:55.325Z,97253.00
2022-11-03T13:43:13.694Z,97257.41
2022-11-03T13:45:42.211Z,97263.25
2022-11-03T13:49:07.440Z,97257.78
2022-11-03T13:51:00.368Z,97270.66
2022-11-03T13:56:21.689Z,97282.31
2022-11-03T14:01:41.899Z,97269.81
2022-11-03T14:06:59.720Z,97259.34
2022-11-03T14:09:28.283Z,97255.91
2022-11-03T14:12:14.111Z,97245.44
2022-11-03T14:14:44.069Z,97244.63
2022-11-03T14:17:12.646Z,97227.91
2022-11-03T14:19:45.048Z,97243.03
2022-11-03T14:22:15.963Z,97238.81
2022-11-03T14:24:44.529Z,97233.78
2022-11-03T14:27:15.842Z,97244.25
2022-11-03T14:29:49.679Z,97240.06
2022-11-03T14:32:19.647Z,97239.25
2022-11-03T14:34:48.697Z,97242.88
2022-11-03T14:37:17.771Z,97243.88
2022-11-03T14:39:46.295Z,97232.81
2022-11-03T14:42:16.036Z,97228.59
2022-11-03T14:44:47.706Z,97230.22
2022-11-03T14:47:18.959Z,97236.44
2022-11-03T14:49:48.683Z,97229.63
2022-11-03T14:52:18.609Z,97228.03
2022-11-03T14:54:47.399Z,97223.78
2022-11-03T14:57:15.870Z,97213.53
2022-11-03T14:59:49.178Z,97208.31
2022-11-03T15:02:20.802Z,97213.75
2022-11-03T15:04:49.846Z,97197.47
2022-11-03T15:07:18.403Z,97194.63
2022-11-03T15:09:46.925Z,97194.03
2022-11-03T15:12:15.777Z,97190.63
2022-11-03T15:14:45.650Z,97186.63
2022-11-03T15:17:14.124Z,97182.97
2022-11-03T15:19:42.590Z,97173.28
2022-11-03T15:22:11.073Z,97166.47
2022-11-03T15:27:28.160Z,97151.19
2022-11-03T15:29:58.113Z,97141.94
2022-11-03T15:32:26.855Z,97136.13
2022-11-03T15:34:55.363Z,97141.56
2022-11-03T15:37:23.907Z,97142.38
2022-11-03T15:39:54.661Z,97137.13
2022-11-03T15:42:27.083Z,97113.78
2022-11-03T15:44:57.271Z,97126.88
2022-11-03T15:47:26.393Z,97119.25
2022-11-03T15:49:54.917Z,97129.50
2022-11-03T15:52:23.385Z,97120.25
2022-11-03T15:54:51.836Z,97129.91
2022-11-03T15:57:20.346Z,97128.34
2022-11-03T15:59:49.917Z,97133.56
2022-11-03T16:02:40.430Z,97126.72
2022-11-03T16:05:11.486Z,97120.50
2022-11-03T16:07:40.259Z,97111.59
2022-11-03T16:10:09.625Z,97090.09
2022-11-03T16:12:38.927Z,97094.31
2022-11-03T16:15:09.133Z,97079.63
2022-11-03T16:17:44.346Z,97085.88
2022-11-03T16:20:14.714Z,97083.47
2022-11-03T16:22:43.310Z,97070.41
2022-11-03T16:25:14.819Z,97062.75
2022-11-03T16:27:45.359Z,97056.50
2022-11-03T16:30:14.657Z,97047.03
2022-11-03T16:32:45.069Z,97029.72
2022-11-03T16:35:13.530Z,97033.38
2022-11-03T16:37:41.984Z,97024.94
2022-11-03T16:40:17.810Z,97024.38
2022-11-03T16:42:48.023Z,97012.88
2022-11-03T16:45:19.837Z,97001.63
2022-11-03T16:47:51.360Z,97005.03
2022-11-03T16:50:20.686Z,96991.97
2022-11-03T16:52:50.798Z,96979.88
2022-11-03T16:55:21.114Z,96982.50
2022-11-03T16:57:49.506Z,96963.19
2022-11-03T17:00:20.672Z,96961.56
2022-11-03T17:02:51.039Z,96960.97
2022-11-03T17:05:21.219Z,96950.50
2022-11-03T17:07:54.000Z,96965.19
2022-11-03T17:10:22.915Z,96963.59
2022-11-03T17:12:51.433Z,96974.06
2022-11-03T17:15:19.995Z,96964.38
2022-11-03T17:17:49.975Z,96956.53
2022-11-03T17:20:19.327Z,96945.28
2022-11-03T17:22:48.755Z,96944.50
2022-11-03T17:25:17.216Z,96943.69
2022-11-03T17:27:50.854Z,96940.03
2022-11-03T17:30:23.201Z,96931.19
2022-11-03T17:32:57.172Z,96930.38
2022-11-03T17:35:34.889Z,96921.72
2022-11-03T17:38:14.042Z,96919.91
2022-11-03T17:40:44.678Z,96920.72
2022-11-03T17:43:21.556Z,96906.84
2022-11-03T17:45:50.560Z,96904.22
2022-11-03T17:48:24.352Z,96897.41
2022-11-03T17:50:56.624Z,96894.56
2022-11-03T17:53:28.765Z,96894.00
2022-11-03T17:56:27.878Z,96883.28
2022-11-03T17:58:47.511Z,96882.28
2022-11-03T18:01:23.772Z,96884.09
2022-11-03T18:03:53.952Z,96885.69
2022-11-03T18:06:23.640Z,96884.91
2022-11-03T18:08:52.055Z,96889.31
2022-11-03T18:11:44.633Z,96876.25
2022-11-03T18:14:13.420Z,96866.56
2022-11-03T18:16:42.250Z,96862.34
2022-11-03T18:19:15.264Z,96878.84
2022-11-03T18:21:44.323Z,96891.72
2022-11-03T18:24:15.342Z,96878.66
2022-11-03T18:26:44.756Z,96894.13
2022-11-03T18:29:13.262Z,96897.53
2022-11-03T18:31:49.883Z,96897.31
2022-11-03T18:34:28.410Z,96909.38
2022-11-03T18:36:57.135Z,96884.81
2022-11-03T18:39:29.790Z,96895.28
2022-11-03T18:41:58.285Z,96896.44
2022-11-03T18:44:29.522Z,96881.09
2022-11-03T18:46:59.882Z,96885.09
2022-11-03T18:49:33.577Z,96870.41
2022-11-03T18:52:05.433Z,96873.38
2022-11-03T18:54:36.833Z,96870.56
2022-11-03T18:57:05.664Z,96863.25
2022-11-03T18:59:38.334Z,96860.44
2022-11-03T19:02:19.373Z,96848.97
2022-11-03T19:04:50.694Z,96846.91
2022-11-03T19:07:26.957Z,96831.81
2022-11-03T19:09:55.596Z,96824.50
2022-11-03T19:12:24.407Z,96822.91
2022-11-03T19:14:53.292Z,96810.63
2022-11-03T19:17:24.826Z,96811.63
2022-11-03T19:19:55.167Z,96803.56
2022-11-03T19:22:24.739Z,96793.91
2022-11-03T19:24:53.372Z,96799.13
2022-11-03T19:27:26.576Z,96792.84
2022-11-03T19:29:57.094Z,96791.84
2022-11-03T19:32:30.458Z,96791.84
2022-11-03T19:35:06.122Z,96794.25
2022-11-03T19:37:36.258Z,96794.00
2022-11-03T19:40:09.065Z,96796.63
2022-11-03T19:42:37.594Z,96798.25
2022-11-03T19:45:09.173Z,96805.06
2022-11-03T19:47:57.690Z,96807.69
2022-11-03T19:50:37.625Z,96816.34
2022-11-03T19:53:09.344Z,96806.66
2022-11-03T19:55:43.655Z,96792.56
2022-11-03T19:58:17.203Z,96817.72
2022-11-03T20:00:47.142Z,96811.47
2022-11-03T20:03:16.287Z,96821.94
2022-11-03T20:05:49.819Z,96819.88
2022-11-03T20:08:22.621Z,96816.72
2022-11-03T20:10:52.002Z,96799.41
2022-11-03T20:13:24.743Z,96814.09
2022-11-03T20:16:00.533Z,96808.84
2022-11-03T20:18:30.787Z,96804.38
2022-11-03T20:21:01.250Z,96791.53
2022-11-03T20:23:34.325Z,96778.22
2022-11-03T20:26:04.143Z,96777.66
2022-11-03T20:28:38.120Z,96767.16
2022-11-03T20:31:08.036Z,96761.13
2022-11-03T20:33:37.202Z,96747.47
2022-11-03T20:36:08.376Z,96754.75
2022-11-03T20:38:38.492Z,96782.97
2022-11-03T20:41:16.116Z,96795.72
2022-11-03T20:43:47.339Z,96794.69
2022-11-03T20:46:27.784Z,96804.59
2022-11-03T20:48:57.500Z,96826.31
2022-11-03T20:51:32.885Z,96830.75
2022-11-03T20:54:03.325Z,96845.44
2022-11-03T20:56:31.971Z,96853.50
2022-11-03T20:59:00.550Z,96860.59
2022-11-03T21:01:34.293Z,96861.59
2022-11-03T21:04:04.283Z,96869.66
2022-11-03T21:06:34.785Z,96862.84
2022-11-03T21:09:14.745Z,96854.19
2022-11-03T21:11:45.325Z,96840.31
2022-11-03T21:14:20.524Z,96838.69
2022-11-03T21:17:06.413Z,96859.28
2022-11-03T21:19:58.239Z,96861.69
2022-11-03T21:22:53.291Z,96868.50
2022-11-03T21:25:24.950Z,96869.75
2022-11-03T21:27:57.722Z,96878.63
2022-11-03T21:30:26.670Z,96879.41
2022-11-03T21:32:55.154Z,96902.16
2022-11-03T21:35:24.600Z,96915.25
2022-11-03T21:37:54.805Z,96918.09
2022-11-03T21:40:23.738Z,96911.25
2022-11-03T21:43:09.951Z,96903.41
2022-11-03T21:45:38.648Z,96895.56
2022-11-03T21:48:25.999Z,96887.16
2022-11-03T21:50:54.646Z,96889.75
2022-11-03T21:53:24.455Z,96889.16
2022-11-03T21:55:53.663Z,96905.47
2022-11-03T21:58:22.512Z,96917.75
2022-11-03T22:00:51.438Z,96921.59
2022-11-03T22:03:20.100Z,96927.41
2022-11-03T22:05:48.670Z,96931.28
2022-11-03T22:08:17.254Z,96933.66
2022-11-03T22:10:47.101Z,96940.94
2022-11-03T22:13:15.614Z,96933.88
2022-11-03T22:16:01.974Z,96930.22
2022-11-03T22:18:30.496Z,96926.84
2022-11-03T22:21:16.717Z,96925.00
2022-11-03T22:24:02.430Z,96925.78
2022-11-03T22:26:49.831Z,96920.19
2022-11-03T22:29:35.753Z,96918.38
2022-11-03T22:32:05.064Z,96933.88
2022-11-03T22:34:50.912Z,96949.22
2022-11-03T22:37:19.328Z,96944.00
2022-11-03T22:40:04.909Z,96942.38
2022-11-03T22:43:03.773Z,96943.38
2022-11-03T22:45:49.607Z,96930.53
2022-11-03T22:48:18.113Z,96954.88
2022-11-03T22:50:46.896Z,96955.91
2022-11-03T22:53:32.994Z,96961.34
2022-11-03T22:56:02.521Z,96970.22
2022-11-03T22:58:32.579Z,96969.41
2022-11-03T23:01:06.100Z,96965.00
2022-11-03T23:03:36.283Z,96973.66
2022-11-03T23:06:07.443Z,96983.88
2022-11-03T23:08:38.328Z,96984.13
2022-11-03T23:11:10.502Z,96986.72
2022-11-03T23:13:40.374Z,96991.72
2022-11-03T23:16:15.568Z,96996.38
2022-11-03T23:19:02.271Z,97007.66
2022-11-03T23:21:31.598Z,97006.84
2022-11-03T23:24:19.178Z,97010.47
2022-11-03T23:26:48.256Z,97010.47
2022-11-03T23:29:18.866Z,97012.88
2022-11-03T23:31:47.796Z,97013.91
2022-11-03T23:34:16.660Z,97017.31
2022-11-03T23:36:45.568Z,97026.97
2022-11-03T23:39:16.285Z,97027.19
2022-11-03T23:41:46.501Z,97028.00
2022-11-03T23:44:17.876Z,97031.59
2022-11-03T23:47:04.543Z,97031.03
2022-11-03T23:49:33.135Z,97043.53
2022-11-03T23:52:01.715Z,97042.38
2022-11-03T23:54:30.361Z,97045.03
2022-11-03T23:57:15.174Z,97043.44
